createdAt,value
2019-02-04T00:02:35.385Z,4.43
2019-02-04T00:06:39.606Z,4.57
2019-02-04T00:10:43.608Z,4.93
2019-02-04T00:14:48.621Z,4.27
2019-02-04T00:18:52.411Z,4.93
2019-02-04T00:22:56.304Z,4.80
2019-02-04T00:27:00.113Z,4.40
2019-02-04T00:31:05.204Z,4.57
2019-02-04T00:35:09.622Z,4.33
2019-02-04T00:39:13.419Z,3.93
2019-02-04T00:43:17.631Z,4.30
2019-02-04T00:47:21.448Z,4.33
2019-02-04T00:51:25.295Z,4.13
2019-02-04T00:55:29.550Z,4.40
2019-02-04T00:59:33.380Z,4.00
2019-02-04T01:03:37.211Z,4.40
2019-02-04T01:07:41.139Z,4.53
2019-02-04T01:11:46.214Z,4.47
2019-02-04T01:15:50.266Z,4.30
2019-02-04T01:19:54.515Z,4.20
2019-02-04T01:23:58.603Z,4.23
2019-02-04T01:28:02.568Z,4.17
2019-02-04T01:32:06.671Z,4.30
2019-02-04T01:36:10.472Z,3.80
2019-02-04T01:40:15.864Z,4.27
2019-02-04T01:44:19.840Z,4.10
2019-02-04T01:48:23.712Z,4.20
2019-02-04T01:52:27.690Z,4.30
2019-02-04T01:56:32.044Z,4.13
2019-02-04T02:00:36.598Z,4.13
2019-02-04T02:04:40.478Z,4.50
2019-02-04T02:08:44.418Z,4.37
2019-02-04T02:12:48.463Z,4.37
2019-02-04T02:16:52.577Z,4.57
2019-02-04T02:20:56.460Z,4.80
2019-02-04T02:25:00.474Z,5.10
2019-02-04T02:29:04.449Z,3.87
2019-02-04T02:33:08.649Z,4.40
2019-02-04T02:37:12.601Z,4.33
2019-02-04T02:41:16.769Z,4.10
2019-02-04T02:45:20.674Z,4.43
2019-02-04T02:49:24.616Z,4.47
2019-02-04T02:53:28.573Z,4.00
2019-02-04T02:57:32.741Z,4.17
2019-02-04T03:01:36.670Z,4.57
2019-02-04T03:05:40.616Z,4.43
2019-02-04T03:09:44.675Z,4.03
2019-02-04T03:13:48.727Z,4.13
2019-02-04T03:17:52.946Z,4.30
2019-02-04T03:21:56.905Z,4.47
2019-02-04T03:26:01.167Z,4.37
2019-02-04T03:30:07.297Z,4.30
2019-02-04T03:34:11.250Z,4.90
2019-02-04T03:38:15.146Z,4.40
2019-02-04T03:42:19.247Z,4.33
2019-02-04T03:46:23.120Z,4.20
2019-02-04T03:50:27.146Z,4.30
2019-02-04T03:54:32.147Z,4.37
2019-02-04T03:58:36.035Z,4.23
2019-02-04T04:02:40.281Z,4.37
2019-02-04T04:06:44.210Z,4.63
2019-02-04T04:10:48.111Z,4.03
2019-02-04T04:14:51.905Z,3.80
2019-02-04T04:18:56.246Z,3.90
2019-02-04T04:23:00.481Z,3.67
2019-02-04T04:27:04.437Z,3.90
2019-02-04T04:31:08.517Z,4.57
2019-02-04T04:35:12.978Z,3.97
2019-02-04T04:39:16.892Z,4.30
2019-02-04T04:43:20.795Z,4.50
2019-02-04T04:47:24.693Z,4.13
2019-02-04T04:51:28.686Z,4.13
2019-02-04T04:55:32.721Z,4.07
2019-02-04T04:59:36.639Z,4.10
2019-02-04T05:03:40.547Z,4.13
2019-02-04T05:07:44.910Z,3.87
2019-02-04T05:11:48.728Z,3.77
2019-02-04T05:15:52.836Z,4.00
2019-02-04T05:19:56.647Z,4.20
2019-02-04T05:24:00.709Z,3.90
2019-02-04T05:28:05.704Z,4.10
2019-02-04T05:32:09.598Z,3.40
2019-02-04T05:36:13.488Z,3.70
2019-02-04T05:40:17.325Z,3.93
2019-02-04T05:44:21.496Z,4.10
2019-02-04T05:48:25.479Z,3.70
2019-02-04T05:52:29.453Z,4.40
2019-02-04T05:56:33.350Z,4.73
2019-02-04T06:00:40.729Z,4.80
2019-02-04T06:04:44.838Z,4.80
2019-02-04T06:08:48.871Z,4.40
2019-02-04T06:12:52.756Z,3.57
2019-02-04T06:16:56.728Z,3.83
2019-02-04T06:21:00.944Z,4.00
2019-02-04T06:25:05.132Z,4.20
2019-02-04T06:29:09.129Z,3.83
2019-02-04T06:33:12.968Z,3.77
2019-02-04T06:37:16.805Z,3.70
2019-02-04T06:41:20.768Z,4.90
2019-02-04T06:45:24.754Z,4.67
2019-02-04T06:49:28.611Z,4.93
2019-02-04T06:53:32.684Z,3.93
2019-02-04T06:57:36.659Z,4.20
2019-02-04T07:01:40.609Z,4.33
2019-02-04T07:05:45.049Z,4.13
2019-02-04T07:09:48.858Z,4.53
2019-02-04T07:13:52.756Z,4.10
2019-02-04T07:18:01.436Z,4.50
2019-02-04T07:22:02.646Z,4.17
2019-02-04T07:26:07.447Z,4.10
2019-02-04T07:30:12.797Z,4.77
2019-02-04T07:34:16.805Z,3.73
2019-02-04T07:38:20.973Z,4.30
2019-02-04T07:42:24.934Z,3.80
2019-02-04T07:46:28.852Z,4.20
2019-02-04T07:50:33.256Z,4.17
2019-02-04T07:54:37.174Z,3.50
2019-02-04T07:58:41.428Z,4.10
2019-02-04T08:02:45.579Z,4.10
2019-02-04T08:06:49.589Z,4.53
2019-02-04T08:10:53.509Z,4.00
2019-02-04T08:14:57.466Z,4.60
2019-02-04T08:19:01.626Z,4.50
2019-02-04T08:23:05.441Z,4.27
2019-02-04T08:27:09.644Z,4.20
2019-02-04T08:31:13.527Z,4.73
2019-02-04T08:35:17.778Z,4.13
2019-02-04T08:39:21.681Z,4.33
2019-02-04T08:43:25.493Z,3.90
2019-02-04T08:47:29.575Z,3.80
2019-02-04T08:51:33.475Z,4.40
2019-02-04T08:55:37.394Z,4.37
2019-02-04T08:59:41.403Z,3.90
2019-02-04T09:03:45.321Z,4.53
2019-02-04T09:07:49.216Z,4.20
2019-02-04T09:11:53.236Z,4.27
2019-02-04T09:15:57.147Z,4.20
2019-02-04T09:20:09.602Z,3.20
2019-02-04T09:24:08.128Z,4.43
2019-02-04T09:28:12.104Z,4.20
2019-02-04T09:32:16.069Z,4.07
2019-02-04T09:36:20.490Z,4.20
2019-02-04T09:40:25.815Z,3.33
2019-02-04T09:44:29.709Z,4.07
2019-02-04T09:48:33.598Z,3.93
2019-02-04T09:52:37.424Z,3.00
2019-02-04T09:56:43.369Z,3.10
2019-02-04T10:00:51.068Z,3.33
2019-02-04T10:04:55.041Z,3.17
2019-02-04T10:08:58.883Z,3.10
2019-02-04T10:13:03.633Z,2.97
2019-02-04T10:17:08.748Z,2.60
2019-02-04T10:21:12.681Z,3.10
2019-02-04T10:25:17.974Z,2.90
2019-02-04T10:29:21.995Z,2.97
2019-02-04T10:33:26.023Z,2.60
2019-02-04T10:37:30.018Z,2.50
2019-02-04T10:41:35.108Z,2.53
2019-02-04T10:45:39.030Z,2.73
2019-02-04T10:49:43.207Z,2.50
2019-02-04T10:53:47.248Z,2.20
2019-02-04T10:57:51.384Z,2.03
2019-02-04T11:01:57.574Z,2.73
2019-02-04T11:06:01.521Z,2.57
2019-02-04T11:10:06.160Z,3.47
2019-02-04T11:14:10.111Z,3.83
2019-02-04T11:18:15.398Z,2.73
2019-02-04T11:22:19.366Z,2.87
2019-02-04T11:26:23.348Z,2.37
2019-02-04T11:30:28.608Z,2.60
2019-02-04T11:34:32.401Z,3.00
2019-02-04T11:38:36.640Z,2.73
2019-02-04T11:42:40.704Z,2.13
2019-02-04T11:46:44.731Z,2.60
2019-02-04T11:50:48.761Z,2.33
2019-02-04T11:54:52.607Z,1.80
2019-02-04T11:58:58.904Z,2.20
2019-02-04T12:03:02.883Z,2.33
2019-02-04T12:07:08.134Z,2.60
2019-02-04T12:11:14.196Z,2.30
2019-02-04T12:15:18.785Z,2.07
2019-02-04T12:19:22.684Z,2.10
2019-02-04T12:23:26.561Z,2.00
2019-02-04T12:27:31.980Z,2.17
2019-02-04T12:31:36.248Z,2.03
2019-02-04T12:35:41.146Z,2.70
2019-02-04T12:39:44.971Z,5.33
2019-02-04T12:43:49.128Z,4.00
2019-02-04T12:47:53.419Z,4.00
2019-02-04T12:51:57.353Z,5.53
2019-02-04T12:56:01.407Z,2.60
2019-02-04T13:00:06.781Z,2.07
2019-02-04T13:04:10.604Z,1.87
2019-02-04T13:08:14.460Z,1.90
2019-02-04T13:12:18.439Z,1.60
2019-02-04T13:16:22.510Z,2.07
2019-02-04T13:20:26.445Z,2.57
2019-02-04T13:24:30.247Z,2.40
2019-02-04T13:28:34.383Z,2.20
2019-02-04T13:32:38.691Z,2.57
2019-02-04T13:36:42.616Z,2.10
2019-02-04T13:40:46.744Z,1.97
2019-02-04T13:44:53.187Z,1.83
2019-02-04T13:48:57.208Z,2.50
2019-02-04T13:53:01.115Z,2.17
2019-02-04T13:57:05.016Z,1.67
2019-02-04T14:01:09.272Z,2.03
2019-02-04T14:05:13.292Z,2.00
2019-02-04T14:09:19.346Z,2.10
2019-02-04T14:13:23.385Z,2.00
2019-02-04T14:17:28.374Z,2.00
2019-02-04T14:21:32.307Z,1.90
2019-02-04T14:25:36.194Z,2.27
2019-02-04T14:29:45.243Z,1.83
2019-02-04T14:33:49.183Z,1.73
2019-02-04T14:37:56.164Z,1.47
2019-02-04T14:42:00.089Z,2.00
2019-02-04T14:46:23.142Z,2.17
2019-02-04T14:50:32.772Z,2.73
2019-02-04T14:54:56.016Z,2.30
2019-02-04T14:59:02.191Z,2.60
2019-02-04T15:03:26.816Z,2.17
2019-02-04T15:07:50.444Z,4.03
2019-02-04T15:12:00.806Z,3.53
2019-02-04T15:16:08.445Z,3.53
2019-02-04T15:20:19.562Z,2.63
2019-02-04T15:24:27.474Z,2.53
2019-02-04T15:28:50.849Z,2.50
2019-02-04T15:33:14.132Z,2.10
2019-02-04T15:37:20.833Z,2.43
2019-02-04T15:41:32.801Z,2.40
2019-02-04T15:45:48.224Z,2.50
2019-02-04T15:50:00.227Z,2.20
2019-02-04T15:54:05.531Z,2.40
2019-02-04T15:58:09.452Z,2.60
2019-02-04T16:02:13.337Z,2.73
2019-02-04T16:06:17.241Z,2.53
2019-02-04T16:10:21.532Z,2.80
2019-02-04T16:14:25.490Z,2.40
2019-02-04T16:18:30.928Z,3.33
2019-02-04T16:22:34.837Z,4.90
2019-02-04T16:26:38.880Z,3.63
2019-02-04T16:30:42.763Z,3.23
2019-02-04T16:34:46.896Z,3.70
2019-02-04T16:38:50.841Z,3.17
2019-02-04T16:42:54.757Z,3.27
2019-02-04T16:46:58.744Z,2.40
2019-02-04T16:51:11.393Z,2.80
2019-02-04T16:55:08.375Z,3.63
2019-02-04T16:59:12.327Z,2.97
2019-02-04T17:03:18.810Z,2.87
2019-02-04T17:07:22.857Z,3.00
2019-02-04T17:11:26.780Z,3.27
2019-02-04T17:15:30.640Z,3.30
2019-02-04T17:19:34.541Z,3.03
2019-02-04T17:23:38.550Z,3.00
2019-02-04T17:27:43.483Z,3.47
2019-02-04T17:31:47.817Z,3.23
2019-02-04T17:35:53.022Z,3.47
2019-02-04T17:39:57.691Z,3.90
2019-02-04T17:44:01.650Z,3.60
2019-02-04T17:48:05.654Z,3.83
2019-02-04T17:52:09.548Z,3.13
2019-02-04T17:56:13.809Z,2.57
2019-02-04T18:00:23.340Z,3.40
2019-02-04T18:04:27.189Z,3.87
2019-02-04T18:08:31.065Z,3.60
2019-02-04T18:12:34.872Z,3.40
2019-02-04T18:16:39.037Z,4.07
2019-02-04T18:20:43.149Z,3.03
2019-02-04T18:24:47.146Z,3.40
2019-02-04T18:28:50.996Z,3.67
2019-02-04T18:32:54.920Z,3.30
2019-02-04T18:37:01.759Z,2.97
2019-02-04T18:41:05.588Z,2.53
2019-02-04T18:45:13.589Z,4.03
2019-02-04T18:49:17.654Z,3.17
2019-02-04T18:53:21.693Z,3.07
2019-02-04T18:57:25.727Z,3.57
2019-02-04T19:01:29.718Z,3.60
2019-02-04T19:05:33.837Z,3.40
2019-02-04T19:09:37.829Z,3.83
2019-02-04T19:13:41.684Z,3.80
2019-02-04T19:17:45.924Z,3.73
2019-02-04T19:21:50.185Z,3.37
2019-02-04T19:25:54.338Z,3.30
2019-02-04T19:29:58.520Z,4.13
2019-02-04T19:34:02.338Z,3.73
2019-02-04T19:38:06.409Z,3.80
2019-02-04T19:42:10.378Z,4.10
2019-02-04T19:46:14.268Z,3.80
2019-02-04T19:50:19.605Z,3.33
2019-02-04T19:54:23.494Z,3.60
2019-02-04T19:58:27.452Z,3.43
2019-02-04T20:02:31.616Z,3.07
2019-02-04T20:06:35.582Z,2.73
2019-02-04T20:10:39.513Z,3.20
2019-02-04T20:14:44.875Z,3.07
2019-02-04T20:18:48.868Z,3.27
2019-02-04T20:22:53.023Z,3.17
2019-02-04T20:26:56.921Z,3.27
2019-02-04T20:31:00.938Z,3.07
2019-02-04T20:35:04.856Z,2.97
2019-02-04T20:39:08.961Z,2.73
2019-02-04T20:43:12.833Z,3.13
2019-02-04T20:47:16.880Z,3.17
2019-02-04T20:51:20.826Z,3.60
2019-02-04T20:55:24.983Z,3.17
2019-02-04T20:59:29.848Z,3.17
2019-02-04T21:03:33.981Z,2.77
2019-02-04T21:07:38.183Z,2.80
2019-02-04T21:11:42.198Z,2.90
2019-02-04T21:15:46.093Z,2.80
2019-02-04T21:19:49.877Z,3.17
2019-02-04T21:23:53.746Z,3.87
2019-02-04T21:27:58.989Z,5.60
2019-02-04T21:32:02.912Z,6.37
2019-02-04T21:36:07.951Z,6.93
2019-02-04T21:40:11.898Z,6.07
2019-02-04T21:44:15.907Z,5.60
2019-02-04T21:48:19.904Z,5.13
2019-02-04T21:52:24.384Z,3.73
2019-02-04T21:56:28.243Z,3.30
2019-02-04T22:00:33.216Z,3.53
2019-02-04T22:04:37.008Z,2.97
2019-02-04T22:08:40.979Z,3.17
2019-02-04T22:12:44.943Z,2.90
2019-02-04T22:16:48.800Z,2.63
2019-02-04T22:20:52.697Z,2.83
2019-02-04T22:24:56.798Z,2.67
2019-02-04T22:29:01.100Z,2.80
2019-02-04T22:33:04.913Z,2.83
2019-02-04T22:37:08.856Z,2.67
2019-02-04T22:41:12.732Z,2.73
2019-02-04T22:45:17.935Z,3.00
2019-02-04T22:49:21.961Z,3.33
2019-02-04T22:53:26.528Z,3.03
2019-02-04T22:57:30.534Z,3.13
2019-02-04T23:01:36.881Z,3.07
2019-02-04T23:05:41.839Z,3.00
2019-02-04T23:09:45.801Z,2.90
2019-02-04T23:13:49.868Z,3.33
2019-02-04T23:17:53.825Z,3.37
2019-02-04T23:21:57.714Z,2.87
2019-02-04T23:26:01.626Z,3.03
2019-02-04T23:30:06.760Z,3.30
2019-02-04T23:34:10.661Z,3.40
2019-02-04T23:38:14.555Z,2.70
2019-02-04T23:42:18.576Z,2.90
2019-02-04T23:46:22.643Z,2.40
2019-02-04T23:50:26.541Z,2.87
2019-02-04T23:54:31.483Z,2.30
2019-02-04T23:58:35.520Z,2.80
